sensor_id;sensor_type;location;lat;lon;timestamp;P1;durP1;ratioP1;P2;durP2;ratioP2
43124;SDS011;49182;50.788;7.318;2022-11-18T00:01:39;4.65;;;1.90;;
43124;SDS011;49182;50.788;7.318;2022-11-18T00:04:06;8.88;;;1.98;;
43124;SDS011;49182;50.788;7.318;2022-11-18T00:06:32;4.88;;;1.90;;
43124;SDS011;49182;50.788;7.318;2022-11-18T00:09:00;5.95;;;2.30;;
43124;SDS011;49182;50.788;7.318;2022-11-18T00:11:27;4.97;;;2.03;;
43124;SDS011;49182;50.788;7.318;2022-11-18T00:13:54;5.75;;;1.55;;
43124;SDS011;49182;50.788;7.318;2022-11-18T00:16:21;4.80;;;1.45;;
43124;SDS011;49182;50.788;7.318;2022-11-18T00:18:49;4.35;;;1.60;;
43124;SDS011;49182;50.788;7.318;2022-11-18T00:21:16;6.97;;;1.25;;
43124;SDS011;49182;50.788;7.318;2022-11-18T00:23:42;4.72;;;1.40;;
43124;SDS011;49182;50.788;7.318;2022-11-18T00:26:11;5.95;;;1.60;;
43124;SDS011;49182;50.788;7.318;2022-11-18T00:28:39;4.57;;;1.70;;
43124;SDS011;49182;50.788;7.318;2022-11-18T00:31:07;6.53;;;1.88;;
43124;SDS011;49182;50.788;7.318;2022-11-18T00:33:35;5.93;;;1.90;;
43124;SDS011;49182;50.788;7.318;2022-11-18T00:36:02;6.07;;;2.42;;
43124;SDS011;49182;50.788;7.318;2022-11-18T00:38:30;5.32;;;1.90;;
43124;SDS011;49182;50.788;7.318;2022-11-18T00:40:59;5.80;;;2.45;;
43124;SDS011;49182;50.788;7.318;2022-11-18T00:43:28;5.45;;;2.28;;
43124;SDS011;49182;50.788;7.318;2022-11-18T00:45:55;4.07;;;1.50;;
43124;SDS011;49182;50.788;7.318;2022-11-18T00:48:22;6.70;;;1.70;;
43124;SDS011;49182;50.788;7.318;2022-11-18T00:50:49;4.88;;;1.70;;
43124;SDS011;49182;50.788;7.318;2022-11-18T00:53:17;7.65;;;1.70;;
43124;SDS011;49182;50.788;7.318;2022-11-18T00:55:44;6.85;;;1.77;;
43124;SDS011;49182;50.788;7.318;2022-11-18T00:58:11;4.13;;;1.55;;
43124;SDS011;49182;50.788;7.318;2022-11-18T01:00:39;4.10;;;1.50;;
43124;SDS011;49182;50.788;7.318;2022-11-18T01:03:06;4.03;;;1.70;;
43124;SDS011;49182;50.788;7.318;2022-11-18T01:05:33;4.20;;;1.40;;
43124;SDS011;49182;50.788;7.318;2022-11-18T01:08:00;4.40;;;1.55;;
43124;SDS011;49182;50.788;7.318;2022-11-18T01:10:27;5.57;;;1.60;;
43124;SDS011;49182;50.788;7.318;2022-11-18T01:12:53;7.93;;;3.15;;
43124;SDS011;49182;50.788;7.318;2022-11-18T01:15:20;6.63;;;2.03;;
43124;SDS011;49182;50.788;7.318;2022-11-18T01:17:48;3.92;;;1.88;;
43124;SDS011;49182;50.788;7.318;2022-11-18T01:20:15;4.32;;;1.83;;
43124;SDS011;49182;50.788;7.318;2022-11-18T01:22:41;7.70;;;1.60;;
43124;SDS011;49182;50.788;7.318;2022-11-18T01:25:08;12.45;;;1.50;;
43124;SDS011;49182;50.788;7.318;2022-11-18T01:27:34;5.18;;;1.58;;
43124;SDS011;49182;50.788;7.318;2022-11-18T01:30:01;2.88;;;1.40;;
43124;SDS011;49182;50.788;7.318;2022-11-18T01:32:28;7.28;;;1.98;;
43124;SDS011;49182;50.788;7.318;2022-11-18T01:34:56;4.68;;;1.63;;
43124;SDS011;49182;50.788;7.318;2022-11-18T01:37:23;5.05;;;1.60;;
43124;SDS011;49182;50.788;7.318;2022-11-18T01:39:49;4.05;;;1.92;;
43124;SDS011;49182;50.788;7.318;2022-11-18T01:42:16;9.40;;;1.83;;
43124;SDS011;49182;50.788;7.318;2022-11-18T01:44:54;3.30;;;1.15;;
43124;SDS011;49182;50.788;7.318;2022-11-18T01:47:24;4.22;;;1.42;;
43124;SDS011;49182;50.788;7.318;2022-11-18T01:49:53;2.60;;;1.23;;
43124;SDS011;49182;50.788;7.318;2022-11-18T01:52:21;3.40;;;1.60;;
43124;SDS011;49182;50.788;7.318;2022-11-18T01:54:49;3.28;;;1.50;;
43124;SDS011;49182;50.788;7.318;2022-11-18T01:57:19;5.13;;;1.73;;
43124;SDS011;49182;50.788;7.318;2022-11-18T01:59:47;4.82;;;1.75;;
43124;SDS011;49182;50.788;7.318;2022-11-18T02:02:16;3.88;;;1.50;;
43124;SDS011;49182;50.788;7.318;2022-11-18T02:04:46;6.88;;;1.73;;
43124;SDS011;49182;50.788;7.318;2022-11-18T02:07:15;5.10;;;1.67;;
43124;SDS011;49182;50.788;7.318;2022-11-18T02:09:43;4.28;;;1.60;;
43124;SDS011;49182;50.788;7.318;2022-11-18T02:12:10;3.58;;;1.60;;
43124;SDS011;49182;50.788;7.318;2022-11-18T02:14:41;6.57;;;1.80;;
43124;SDS011;49182;50.788;7.318;2022-11-18T02:19:47;6.45;;;1.88;;
43124;SDS011;49182;50.788;7.318;2022-11-18T02:22:41;5.32;;;1.85;;
43124;SDS011;49182;50.788;7.318;2022-11-18T02:25:28;6.28;;;1.90;;
43124;SDS011;49182;50.788;7.318;2022-11-18T02:28:08;4.05;;;1.60;;
43124;SDS011;49182;50.788;7.318;2022-11-18T02:30:52;4.35;;;1.65;;
43124;SDS011;49182;50.788;7.318;2022-11-18T02:33:26;6.25;;;2.00;;
43124;SDS011;49182;50.788;7.318;2022-11-18T02:39:50;3.15;;;1.58;;
43124;SDS011;49182;50.788;7.318;2022-11-18T02:42:20;3.63;;;1.63;;
43124;SDS011;49182;50.788;7.318;2022-11-18T02:44:51;6.07;;;1.92;;
43124;SDS011;49182;50.788;7.318;2022-11-18T02:47:22;4.18;;;1.50;;
43124;SDS011;49182;50.788;7.318;2022-11-18T02:49:53;4.25;;;1.70;;
43124;SDS011;49182;50.788;7.318;2022-11-18T02:52:23;4.45;;;1.63;;
43124;SDS011;49182;50.788;7.318;2022-11-18T02:54:52;5.35;;;1.50;;
43124;SDS011;49182;50.788;7.318;2022-11-18T02:57:19;3.28;;;1.40;;
43124;SDS011;49182;50.788;7.318;2022-11-18T02:59:48;4.00;;;1.30;;
43124;SDS011;49182;50.788;7.318;2022-11-18T03:02:15;4.70;;;1.70;;
43124;SDS011;49182;50.788;7.318;2022-11-18T03:04:45;7.30;;;2.30;;
43124;SDS011;49182;50.788;7.318;2022-11-18T03:07:14;4.68;;;1.77;;
43124;SDS011;49182;50.788;7.318;2022-11-18T03:09:49;4.63;;;1.30;;
43124;SDS011;49182;50.788;7.318;2022-11-18T03:12:20;7.82;;;1.67;;
43124;SDS011;49182;50.788;7.318;2022-11-18T03:14:55;2.85;;;1.38;;
43124;SDS011;49182;50.788;7.318;2022-11-18T03:17:30;4.53;;;1.60;;
43124;SDS011;49182;50.788;7.318;2022-11-18T03:20:09;3.92;;;1.50;;
43124;SDS011;49182;50.788;7.318;2022-11-18T03:22:43;4.60;;;2.28;;
43124;SDS011;49182;50.788;7.318;2022-11-18T03:25:16;6.22;;;1.80;;
43124;SDS011;49182;50.788;7.318;2022-11-18T03:27:48;3.33;;;1.20;;
43124;SDS011;49182;50.788;7.318;2022-11-18T03:30:22;5.53;;;1.58;;
43124;SDS011;49182;50.788;7.318;2022-11-18T03:32:50;4.75;;;1.55;;
43124;SDS011;49182;50.788;7.318;2022-11-18T03:35:25;4.97;;;1.30;;
43124;SDS011;49182;50.788;7.318;2022-11-18T03:37:56;3.33;;;1.50;;
43124;SDS011;49182;50.788;7.318;2022-11-18T03:42:56;4.18;;;1.52;;
43124;SDS011;49182;50.788;7.318;2022-11-18T03:45:28;4.82;;;1.77;;
43124;SDS011;49182;50.788;7.318;2022-11-18T03:50:31;4.07;;;1.30;;
43124;SDS011;49182;50.788;7.318;2022-11-18T03:53:01;8.10;;;1.63;;
43124;SDS011;49182;50.788;7.318;2022-11-18T03:55:31;4.20;;;1.70;;
43124;SDS011;49182;50.788;7.318;2022-11-18T03:58:02;5.78;;;1.70;;
43124;SDS011;49182;50.788;7.318;2022-11-18T04:00:33;3.97;;;1.67;;
43124;SDS011;49182;50.788;7.318;2022-11-18T04:05:32;3.55;;;1.55;;
43124;SDS011;49182;50.788;7.318;2022-11-18T04:10:33;6.00;;;1.63;;
43124;SDS011;49182;50.788;7.318;2022-11-18T04:13:05;4.60;;;1.65;;
43124;SDS011;49182;50.788;7.318;2022-11-18T04:15:36;4.78;;;1.92;;
43124;SDS011;49182;50.788;7.318;2022-11-18T04:18:03;3.42;;;1.48;;
43124;SDS011;49182;50.788;7.318;2022-11-18T04:20:33;5.88;;;1.63;;
43124;SDS011;49182;50.788;7.318;2022-11-18T04:23:00;4.57;;;1.80;;
43124;SDS011;49182;50.788;7.318;2022-11-18T04:25:26;4.25;;;1.52;;
43124;SDS011;49182;50.788;7.318;2022-11-18T04:27:53;4.72;;;2.03;;
43124;SDS011;49182;50.788;7.318;2022-11-18T04:30:20;2.88;;;1.23;;
43124;SDS011;49182;50.788;7.318;2022-11-18T04:32:46;4.20;;;1.70;;
43124;SDS011;49182;50.788;7.318;2022-11-18T04:35:13;5.55;;;1.80;;
43124;SDS011;49182;50.788;7.318;2022-11-18T04:37:42;5.18;;;1.42;;
43124;SDS011;49182;50.788;7.318;2022-11-18T04:40:09;3.75;;;1.48;;
43124;SDS011;49182;50.788;7.318;2022-11-18T04:42:36;5.55;;;2.63;;
43124;SDS011;49182;50.788;7.318;2022-11-18T04:45:03;7.38;;;1.90;;
43124;SDS011;49182;50.788;7.318;2022-11-18T04:47:31;4.43;;;1.63;;
43124;SDS011;49182;50.788;7.318;2022-11-18T04:49:58;3.92;;;1.50;;
43124;SDS011;49182;50.788;7.318;2022-11-18T04:52:24;3.95;;;2.00;;
43124;SDS011;49182;50.788;7.318;2022-11-18T04:54:52;4.57;;;1.70;;
43124;SDS011;49182;50.788;7.318;2022-11-18T04:57:19;4.97;;;1.42;;
43124;SDS011;49182;50.788;7.318;2022-11-18T04:59:46;4.50;;;1.67;;
43124;SDS011;49182;50.788;7.318;2022-11-18T05:02:12;3.38;;;1.65;;
43124;SDS011;49182;50.788;7.318;2022-11-18T05:04:39;5.72;;;2.65;;
43124;SDS011;49182;50.788;7.318;2022-11-18T05:07:05;4.20;;;1.88;;
43124;SDS011;49182;50.788;7.318;2022-11-18T05:09:32;5.18;;;1.85;;
43124;SDS011;49182;50.788;7.318;2022-11-18T05:12:00;14.30;;;6.05;;
43124;SDS011;49182;50.788;7.318;2022-11-18T05:14:27;4.68;;;2.08;;
43124;SDS011;49182;50.788;7.318;2022-11-18T05:16:55;5.18;;;1.88;;
43124;SDS011;49182;50.788;7.318;2022-11-18T05:19:23;4.15;;;1.55;;
43124;SDS011;49182;50.788;7.318;2022-11-18T05:21:50;4.28;;;1.83;;
43124;SDS011;49182;50.788;7.318;2022-11-18T05:24:16;9.07;;;1.77;;
43124;SDS011;49182;50.788;7.318;2022-11-18T05:26:43;9.60;;;1.60;;
43124;SDS011;49182;50.788;7.318;2022-11-18T05:29:11;4.60;;;2.00;;
43124;SDS011;49182;50.788;7.318;2022-11-18T05:31:38;5.80;;;2.45;;
43124;SDS011;49182;50.788;7.318;2022-11-18T05:34:04;6.45;;;1.95;;
43124;SDS011;49182;50.788;7.318;2022-11-18T05:36:31;4.03;;;1.95;;
43124;SDS011;49182;50.788;7.318;2022-11-18T05:38:58;10.00;;;2.33;;
43124;SDS011;49182;50.788;7.318;2022-11-18T05:41:25;5.57;;;2.20;;
43124;SDS011;49182;50.788;7.318;2022-11-18T05:43:51;5.65;;;1.70;;
43124;SDS011;49182;50.788;7.318;2022-11-18T05:46:19;3.95;;;1.90;;
43124;SDS011;49182;50.788;7.318;2022-11-18T05:48:46;5.53;;;2.30;;
43124;SDS011;49182;50.788;7.318;2022-11-18T05:51:12;6.47;;;2.40;;
43124;SDS011;49182;50.788;7.318;2022-11-18T05:53:39;5.63;;;2.00;;
43124;SDS011;49182;50.788;7.318;2022-11-18T05:56:06;4.60;;;1.88;;
43124;SDS011;49182;50.788;7.318;2022-11-18T05:58:41;5.70;;;1.98;;
43124;SDS011;49182;50.788;7.318;2022-11-18T06:01:08;4.60;;;2.00;;
43124;SDS011;49182;50.788;7.318;2022-11-18T06:03:38;4.35;;;2.28;;
43124;SDS011;49182;50.788;7.318;2022-11-18T06:06:06;4.18;;;2.15;;
43124;SDS011;49182;50.788;7.318;2022-11-18T06:08:38;5.05;;;2.30;;
43124;SDS011;49182;50.788;7.318;2022-11-18T06:11:09;6.47;;;2.72;;
43124;SDS011;49182;50.788;7.318;2022-11-18T06:16:08;4.03;;;1.98;;
43124;SDS011;49182;50.788;7.318;2022-11-18T06:18:38;6.15;;;2.72;;
43124;SDS011;49182;50.788;7.318;2022-11-18T06:21:06;7.00;;;2.17;;
43124;SDS011;49182;50.788;7.318;2022-11-18T06:23:33;6.32;;;1.75;;
43124;SDS011;49182;50.788;7.318;2022-11-18T06:26:02;5.07;;;1.60;;
43124;SDS011;49182;50.788;7.318;2022-11-18T06:28:29;5.43;;;2.00;;
43124;SDS011;49182;50.788;7.318;2022-11-18T06:30:56;5.03;;;1.60;;
43124;SDS011;49182;50.788;7.318;2022-11-18T06:33:22;3.55;;;1.33;;
43124;SDS011;49182;50.788;7.318;2022-11-18T06:35:50;8.32;;;1.98;;
43124;SDS011;49182;50.788;7.318;2022-11-18T06:38:17;6.22;;;1.83;;
43124;SDS011;49182;50.788;7.318;2022-11-18T06:40:43;8.85;;;1.63;;
43124;SDS011;49182;50.788;7.318;2022-11-18T06:43:10;6.53;;;1.80;;
43124;SDS011;49182;50.788;7.318;2022-11-18T06:45:37;4.43;;;1.83;;
43124;SDS011;49182;50.788;7.318;2022-11-18T06:48:04;4.03;;;1.77;;
43124;SDS011;49182;50.788;7.318;2022-11-18T06:50:31;5.53;;;1.90;;
43124;SDS011;49182;50.788;7.318;2022-11-18T06:52:59;4.47;;;1.98;;
43124;SDS011;49182;50.788;7.318;2022-11-18T06:55:26;7.03;;;2.20;;
43124;SDS011;49182;50.788;7.318;2022-11-18T06:57:54;5.95;;;2.25;;
43124;SDS011;49182;50.788;7.318;2022-11-18T07:00:21;6.07;;;2.20;;
43124;SDS011;49182;50.788;7.318;2022-11-18T07:02:47;5.22;;;2.17;;
43124;SDS011;49182;50.788;7.318;2022-11-18T07:05:14;6.18;;;1.80;;
43124;SDS011;49182;50.788;7.318;2022-11-18T07:07:41;4.35;;;1.73;;
43124;SDS011;49182;50.788;7.318;2022-11-18T07:10:09;3.90;;;1.65;;
43124;SDS011;49182;50.788;7.318;2022-11-18T07:12:35;5.07;;;1.85;;
43124;SDS011;49182;50.788;7.318;2022-11-18T07:15:02;9.15;;;3.13;;
43124;SDS011;49182;50.788;7.318;2022-11-18T07:17:29;6.28;;;3.00;;
43124;SDS011;49182;50.788;7.318;2022-11-18T07:19:56;8.75;;;2.80;;
43124;SDS011;49182;50.788;7.318;2022-11-18T07:22:22;9.65;;;2.83;;
43124;SDS011;49182;50.788;7.318;2022-11-18T07:24:49;6.25;;;2.80;;
43124;SDS011;49182;50.788;7.318;2022-11-18T07:27:17;6.10;;;2.33;;
43124;SDS011;49182;50.788;7.318;2022-11-18T07:29:43;6.93;;;3.30;;
43124;SDS011;49182;50.788;7.318;2022-11-18T07:32:10;9.13;;;3.83;;
43124;SDS011;49182;50.788;7.318;2022-11-18T07:34:37;8.82;;;2.83;;
43124;SDS011;49182;50.788;7.318;2022-11-18T07:37:04;7.18;;;3.30;;
43124;SDS011;49182;50.788;7.318;2022-11-18T07:39:31;6.65;;;2.47;;
43124;SDS011;49182;50.788;7.318;2022-11-18T07:41:57;4.18;;;2.25;;
43124;SDS011;49182;50.788;7.318;2022-11-18T07:44:26;4.75;;;2.20;;
43124;SDS011;49182;50.788;7.318;2022-11-18T07:46:52;7.20;;;2.38;;
43124;SDS011;49182;50.788;7.318;2022-11-18T07:49:19;5.60;;;2.38;;
43124;SDS011;49182;50.788;7.318;2022-11-18T07:51:46;5.63;;;2.78;;
43124;SDS011;49182;50.788;7.318;2022-11-18T07:54:13;10.27;;;2.60;;
43124;SDS011;49182;50.788;7.318;2022-11-18T07:56:40;11.38;;;4.32;;
43124;SDS011;49182;50.788;7.318;2022-11-18T07:59:06;10.68;;;4.22;;
43124;SDS011;49182;50.788;7.318;2022-11-18T08:01:35;7.22;;;3.63;;
43124;SDS011;49182;50.788;7.318;2022-11-18T08:04:05;7.65;;;4.07;;
43124;SDS011;49182;50.788;7.318;2022-11-18T08:06:32;7.30;;;3.38;;
43124;SDS011;49182;50.788;7.318;2022-11-18T08:08:59;12.95;;;3.58;;
43124;SDS011;49182;50.788;7.318;2022-11-18T08:11:26;7.18;;;3.33;;
43124;SDS011;49182;50.788;7.318;2022-11-18T08:13:53;12.93;;;3.83;;
43124;SDS011;49182;50.788;7.318;2022-11-18T08:16:20;6.65;;;3.28;;
43124;SDS011;49182;50.788;7.318;2022-11-18T08:18:51;6.10;;;2.92;;
43124;SDS011;49182;50.788;7.318;2022-11-18T08:21:18;7.20;;;2.33;;
43124;SDS011;49182;50.788;7.318;2022-11-18T08:23:48;7.30;;;3.17;;
43124;SDS011;49182;50.788;7.318;2022-11-18T08:26:15;6.25;;;2.22;;
43124;SDS011;49182;50.788;7.318;2022-11-18T08:28:42;4.40;;;2.15;;
43124;SDS011;49182;50.788;7.318;2022-11-18T08:31:09;4.82;;;1.75;;
43124;SDS011;49182;50.788;7.318;2022-11-18T08:33:36;5.22;;;2.05;;
43124;SDS011;49182;50.788;7.318;2022-11-18T08:36:08;6.95;;;1.95;;
43124;SDS011;49182;50.788;7.318;2022-11-18T08:38:39;5.50;;;1.85;;
43124;SDS011;49182;50.788;7.318;2022-11-18T08:41:06;6.97;;;2.30;;
43124;SDS011;49182;50.788;7.318;2022-11-18T08:43:35;7.53;;;2.17;;
43124;SDS011;49182;50.788;7.318;2022-11-18T08:46:02;4.93;;;2.10;;
43124;SDS011;49182;50.788;7.318;2022-11-18T08:48:28;5.88;;;2.30;;
43124;SDS011;49182;50.788;7.318;2022-11-18T08:50:55;6.22;;;2.25;;
43124;SDS011;49182;50.788;7.318;2022-11-18T08:53:24;7.50;;;2.33;;
43124;SDS011;49182;50.788;7.318;2022-11-18T08:55:53;6.40;;;2.42;;
43124;SDS011;49182;50.788;7.318;2022-11-18T08:58:22;6.57;;;2.33;;
43124;SDS011;49182;50.788;7.318;2022-11-18T09:00:49;7.53;;;2.55;;
43124;SDS011;49182;50.788;7.318;2022-11-18T09:03:15;5.70;;;2.13;;
43124;SDS011;49182;50.788;7.318;2022-11-18T09:05:42;5.95;;;2.13;;
43124;SDS011;49182;50.788;7.318;2022-11-18T09:08:09;5.72;;;2.22;;
43124;SDS011;49182;50.788;7.318;2022-11-18T09:10:37;9.13;;;2.30;;
43124;SDS011;49182;50.788;7.318;2022-11-18T09:13:04;6.28;;;2.40;;
43124;SDS011;49182;50.788;7.318;2022-11-18T09:15:51;8.45;;;2.20;;
43124;SDS011;49182;50.788;7.318;2022-11-18T09:18:17;5.28;;;2.33;;
43124;SDS011;49182;50.788;7.318;2022-11-18T09:20:52;4.07;;;2.08;;
43124;SDS011;49182;50.788;7.318;2022-11-18T09:23:19;8.77;;;2.50;;
43124;SDS011;49182;50.788;7.318;2022-11-18T09:25:47;10.85;;;5.70;;
43124;SDS011;49182;50.788;7.318;2022-11-18T09:28:13;8.15;;;3.45;;
43124;SDS011;49182;50.788;7.318;2022-11-18T09:30:40;7.13;;;3.60;;
43124;SDS011;49182;50.788;7.318;2022-11-18T09:33:07;9.68;;;4.07;;
43124;SDS011;49182;50.788;7.318;2022-11-18T09:35:34;8.05;;;3.50;;
43124;SDS011;49182;50.788;7.318;2022-11-18T09:38:00;7.80;;;3.45;;
43124;SDS011;49182;50.788;7.318;2022-11-18T09:40:27;11.40;;;4.07;;
43124;SDS011;49182;50.788;7.318;2022-11-18T09:42:58;8.52;;;4.22;;
43124;SDS011;49182;50.788;7.318;2022-11-18T09:45:33;8.98;;;4.10;;
43124;SDS011;49182;50.788;7.318;2022-11-18T09:48:06;9.07;;;3.92;;
43124;SDS011;49182;50.788;7.318;2022-11-18T09:50:40;8.77;;;3.00;;
43124;SDS011;49182;50.788;7.318;2022-11-18T09:53:17;8.18;;;3.10;;
43124;SDS011;49182;50.788;7.318;2022-11-18T09:55:45;5.40;;;2.30;;
43124;SDS011;49182;50.788;7.318;2022-11-18T09:58:15;5.00;;;2.25;;
43124;SDS011;49182;50.788;7.318;2022-11-18T10:00:46;6.28;;;2.67;;
43124;SDS011;49182;50.788;7.318;2022-11-18T10:03:14;9.45;;;4.07;;
43124;SDS011;49182;50.788;7.318;2022-11-18T10:05:48;5.25;;;2.40;;
43124;SDS011;49182;50.788;7.318;2022-11-18T10:08:21;7.63;;;2.90;;
43124;SDS011;49182;50.788;7.318;2022-11-18T10:10:54;7.68;;;2.70;;
43124;SDS011;49182;50.788;7.318;2022-11-18T10:13:34;5.63;;;2.80;;
43124;SDS011;49182;50.788;7.318;2022-11-18T10:16:12;5.22;;;2.58;;
43124;SDS011;49182;50.788;7.318;2022-11-18T10:18:49;7.50;;;2.72;;
43124;SDS011;49182;50.788;7.318;2022-11-18T10:21:31;6.50;;;3.20;;
43124;SDS011;49182;50.788;7.318;2022-11-18T10:24:07;6.45;;;3.03;;
43124;SDS011;49182;50.788;7.318;2022-11-18T10:26:39;9.13;;;3.30;;
43124;SDS011;49182;50.788;7.318;2022-11-18T10:29:08;5.88;;;2.75;;
43124;SDS011;49182;50.788;7.318;2022-11-18T10:31:35;7.50;;;3.30;;
43124;SDS011;49182;50.788;7.318;2022-11-18T10:34:03;7.75;;;2.60;;
43124;SDS011;49182;50.788;7.318;2022-11-18T10:36:30;5.57;;;2.85;;
43124;SDS011;49182;50.788;7.318;2022-11-18T10:39:07;4.20;;;2.00;;
43124;SDS011;49182;50.788;7.318;2022-11-18T10:41:40;4.57;;;2.00;;
43124;SDS011;49182;50.788;7.318;2022-11-18T10:44:28;4.53;;;2.05;;
43124;SDS011;49182;50.788;7.318;2022-11-18T10:47:13;5.80;;;2.05;;
43124;SDS011;49182;50.788;7.318;2022-11-18T10:49:51;6.70;;;2.67;;
43124;SDS011;49182;50.788;7.318;2022-11-18T10:52:18;5.70;;;2.10;;
43124;SDS011;49182;50.788;7.318;2022-11-18T10:54:46;4.60;;;2.05;;
43124;SDS011;49182;50.788;7.318;2022-11-18T10:57:32;5.80;;;2.25;;
43124;SDS011;49182;50.788;7.318;2022-11-18T11:00:02;7.75;;;2.20;;
43124;SDS011;49182;50.788;7.318;2022-11-18T11:02:30;10.02;;;2.40;;
43124;SDS011;49182;50.788;7.318;2022-11-18T11:05:00;7.63;;;2.28;;
43124;SDS011;49182;50.788;7.318;2022-11-18T11:07:30;5.72;;;2.25;;
43124;SDS011;49182;50.788;7.318;2022-11-18T11:09:59;5.93;;;2.70;;
43124;SDS011;49182;50.788;7.318;2022-11-18T11:12:27;6.55;;;2.33;;
43124;SDS011;49182;50.788;7.318;2022-11-18T11:14:56;8.48;;;1.90;;
43124;SDS011;49182;50.788;7.318;2022-11-18T11:17:29;4.93;;;1.48;;
43124;SDS011;49182;50.788;7.318;2022-11-18T11:20:02;6.05;;;1.85;;
43124;SDS011;49182;50.788;7.318;2022-11-18T11:22:31;4.28;;;2.00;;
43124;SDS011;49182;50.788;7.318;2022-11-18T11:24:58;4.35;;;1.40;;
43124;SDS011;49182;50.788;7.318;2022-11-18T11:27:38;3.60;;;1.40;;
43124;SDS011;49182;50.788;7.318;2022-11-18T11:30:35;7.63;;;1.83;;
43124;SDS011;49182;50.788;7.318;2022-11-18T11:33:24;4.47;;;1.50;;
43124;SDS011;49182;50.788;7.318;2022-11-18T11:36:00;7.70;;;1.63;;
43124;SDS011;49182;50.788;7.318;2022-11-18T11:38:41;4.03;;;1.30;;
43124;SDS011;49182;50.788;7.318;2022-11-18T11:41:16;4.40;;;1.50;;
43124;SDS011;49182;50.788;7.318;2022-11-18T11:43:51;7.53;;;1.45;;
43124;SDS011;49182;50.788;7.318;2022-11-18T11:46:32;7.20;;;1.73;;
43124;SDS011;49182;50.788;7.318;2022-11-18T11:49:13;6.50;;;1.65;;
43124;SDS011;49182;50.788;7.318;2022-11-18T11:51:46;4.95;;;1.65;;
43124;SDS011;49182;50.788;7.318;2022-11-18T11:54:23;5.72;;;2.22;;
43124;SDS011;49182;50.788;7.318;2022-11-18T11:57:03;6.60;;;2.10;;
43124;SDS011;49182;50.788;7.318;2022-11-18T11:59:36;5.43;;;3.20;;
43124;SDS011;49182;50.788;7.318;2022-11-18T12:02:18;5.25;;;1.60;;
43124;SDS011;49182;50.788;7.318;2022-11-18T12:04:57;6.32;;;1.38;;
43124;SDS011;49182;50.788;7.318;2022-11-18T12:07:29;4.03;;;1.30;;
43124;SDS011;49182;50.788;7.318;2022-11-18T12:10:01;6.07;;;1.47;;
43124;SDS011;49182;50.788;7.318;2022-11-18T12:12:45;6.95;;;2.35;;
43124;SDS011;49182;50.788;7.318;2022-11-18T12:15:37;5.82;;;1.50;;
43124;SDS011;49182;50.788;7.318;2022-11-18T12:18:11;6.50;;;1.52;;
43124;SDS011;49182;50.788;7.318;2022-11-18T12:20:47;9.02;;;1.67;;
43124;SDS011;49182;50.788;7.318;2022-11-18T12:23:18;5.05;;;1.60;;
43124;SDS011;49182;50.788;7.318;2022-11-18T12:25:57;4.43;;;1.50;;
43124;SDS011;49182;50.788;7.318;2022-11-18T12:28:29;5.65;;;1.50;;
43124;SDS011;49182;50.788;7.318;2022-11-18T12:34:00;9.07;;;3.08;;
43124;SDS011;49182;50.788;7.318;2022-11-18T12:36:31;5.63;;;1.40;;
43124;SDS011;49182;50.788;7.318;2022-11-18T12:39:44;5.93;;;1.40;;
43124;SDS011;49182;50.788;7.318;2022-11-18T12:45:36;3.90;;;1.13;;
43124;SDS011;49182;50.788;7.318;2022-11-18T12:48:25;7.30;;;1.83;;
43124;SDS011;49182;50.788;7.318;2022-11-18T12:50:55;5.97;;;1.00;;
43124;SDS011;49182;50.788;7.318;2022-11-18T12:53:31;6.15;;;1.20;;
43124;SDS011;49182;50.788;7.318;2022-11-18T12:56:09;5.75;;;0.90;;
43124;SDS011;49182;50.788;7.318;2022-11-18T12:58:37;6.28;;;0.90;;
43124;SDS011;49182;50.788;7.318;2022-11-18T13:01:10;13.10;;;1.27;;
43124;SDS011;49182;50.788;7.318;2022-11-18T13:03:38;6.03;;;1.15;;
43124;SDS011;49182;50.788;7.318;2022-11-18T13:06:06;3.67;;;1.08;;
43124;SDS011;49182;50.788;7.318;2022-11-18T13:08:43;5.55;;;1.23;;
43124;SDS011;49182;50.788;7.318;2022-11-18T13:11:16;3.42;;;0.85;;
43124;SDS011;49182;50.788;7.318;2022-11-18T13:13:44;4.03;;;0.90;;
43124;SDS011;49182;50.788;7.318;2022-11-18T13:16:13;5.28;;;0.90;;
43124;SDS011;49182;50.788;7.318;2022-11-18T13:18:47;5.68;;;0.88;;
43124;SDS011;49182;50.788;7.318;2022-11-18T13:21:22;4.97;;;0.90;;
43124;SDS011;49182;50.788;7.318;2022-11-18T13:23:56;7.80;;;1.55;;
43124;SDS011;49182;50.788;7.318;2022-11-18T13:26:26;3.08;;;0.80;;
43124;SDS011;49182;50.788;7.318;2022-11-18T13:29:07;4.60;;;1.13;;
43124;SDS011;49182;50.788;7.318;2022-11-18T13:31:47;5.53;;;1.00;;
43124;SDS011;49182;50.788;7.318;2022-11-18T13:34:23;7.25;;;1.63;;
43124;SDS011;49182;50.788;7.318;2022-11-18T13:36:51;2.80;;;0.80;;
43124;SDS011;49182;50.788;7.318;2022-11-18T13:39:21;2.95;;;0.73;;
43124;SDS011;49182;50.788;7.318;2022-11-18T13:41:59;5.55;;;0.80;;
43124;SDS011;49182;50.788;7.318;2022-11-18T13:44:28;6.90;;;1.13;;
43124;SDS011;49182;50.788;7.318;2022-11-18T13:46:58;7.80;;;1.10;;
43124;SDS011;49182;50.788;7.318;2022-11-18T13:49:33;4.30;;;1.02;;
43124;SDS011;49182;50.788;7.318;2022-11-18T13:52:16;5.20;;;1.00;;
43124;SDS011;49182;50.788;7.318;2022-11-18T13:54:47;3.75;;;1.20;;
43124;SDS011;49182;50.788;7.318;2022-11-18T13:57:16;5.78;;;1.23;;
43124;SDS011;49182;50.788;7.318;2022-11-18T13:59:45;7.95;;;1.40;;
43124;SDS011;49182;50.788;7.318;2022-11-18T14:02:13;7.35;;;1.05;;
43124;SDS011;49182;50.788;7.318;2022-11-18T14:04:48;4.43;;;0.80;;
43124;SDS011;49182;50.788;7.318;2022-11-18T14:07:25;4.68;;;0.82;;
43124;SDS011;49182;50.788;7.318;2022-11-18T14:09:57;2.85;;;0.73;;
43124;SDS011;49182;50.788;7.318;2022-11-18T14:12:25;4.95;;;1.25;;
43124;SDS011;49182;50.788;7.318;2022-11-18T14:17:48;3.33;;;0.65;;
43124;SDS011;49182;50.788;7.318;2022-11-18T14:20:16;4.10;;;0.82;;
43124;SDS011;49182;50.788;7.318;2022-11-18T14:22:43;4.55;;;0.93;;
43124;SDS011;49182;50.788;7.318;2022-11-18T14:25:17;3.88;;;0.80;;
43124;SDS011;49182;50.788;7.318;2022-11-18T14:27:46;1.80;;;0.60;;
43124;SDS011;49182;50.788;7.318;2022-11-18T14:30:23;7.45;;;1.13;;
43124;SDS011;49182;50.788;7.318;2022-11-18T14:33:13;3.08;;;0.57;;
43124;SDS011;49182;50.788;7.318;2022-11-18T14:35:43;3.97;;;0.82;;
43124;SDS011;49182;50.788;7.318;2022-11-18T14:38:13;3.90;;;1.02;;
43124;SDS011;49182;50.788;7.318;2022-11-18T14:41:04;6.13;;;1.02;;
43124;SDS011;49182;50.788;7.318;2022-11-18T14:43:32;4.13;;;0.70;;
43124;SDS011;49182;50.788;7.318;2022-11-18T14:46:00;2.17;;;0.75;;
43124;SDS011;49182;50.788;7.318;2022-11-18T14:48:28;3.85;;;0.65;;
43124;SDS011;49182;50.788;7.318;2022-11-18T14:50:58;3.28;;;0.80;;
43124;SDS011;49182;50.788;7.318;2022-11-18T14:53:24;2.38;;;1.02;;
43124;SDS011;49182;50.788;7.318;2022-11-18T14:55:55;6.25;;;1.23;;
43124;SDS011;49182;50.788;7.318;2022-11-18T14:58:25;3.40;;;0.90;;
43124;SDS011;49182;50.788;7.318;2022-11-18T15:00:51;3.70;;;1.10;;
43124;SDS011;49182;50.788;7.318;2022-11-18T15:03:18;4.03;;;1.58;;
43124;SDS011;49182;50.788;7.318;2022-11-18T15:05:45;3.47;;;1.20;;
43124;SDS011;49182;50.788;7.318;2022-11-18T15:08:12;4.72;;;1.92;;
43124;SDS011;49182;50.788;7.318;2022-11-18T15:10:38;3.92;;;1.20;;
43124;SDS011;49182;50.788;7.318;2022-11-18T15:13:05;5.60;;;1.20;;
43124;SDS011;49182;50.788;7.318;2022-11-18T15:15:33;2.28;;;0.90;;
43124;SDS011;49182;50.788;7.318;2022-11-18T15:18:00;2.05;;;1.05;;
43124;SDS011;49182;50.788;7.318;2022-11-18T15:20:26;3.55;;;1.00;;
43124;SDS011;49182;50.788;7.318;2022-11-18T15:22:53;3.55;;;1.08;;
43124;SDS011;49182;50.788;7.318;2022-11-18T15:25:20;3.75;;;0.90;;
43124;SDS011;49182;50.788;7.318;2022-11-18T15:27:46;3.60;;;0.77;;
43124;SDS011;49182;50.788;7.318;2022-11-18T15:30:13;3.17;;;0.95;;
43124;SDS011;49182;50.788;7.318;2022-11-18T15:32:41;2.88;;;0.85;;
43124;SDS011;49182;50.788;7.318;2022-11-18T15:35:09;4.63;;;0.90;;